sensor_id;sensor_type;location;lat;lon;timestamp;pressure;altitude;pressure_sealevel;temperature;humidity
66273;BME280;58450;52.150;4.466;2022-09-16T00:00:53;101079.22;;;14.05;100.00
66273;BME280;58450;52.150;4.466;2022-09-16T00:03:21;101077.53;;;14.04;100.00
66273;BME280;58450;52.150;4.466;2022-09-16T00:05:51;101084.00;;;14.03;100.00
66273;BME280;58450;52.150;4.466;2022-09-16T00:08:20;101082.94;;;14.04;100.00
66273;BME280;58450;52.150;4.466;2022-09-16T00:10:48;101092.97;;;14.03;100.00
66273;BME280;58450;52.150;4.466;2022-09-16T00:13:17;101111.97;;;13.75;100.00
66273;BME280;58450;52.150;4.466;2022-09-16T00:15:47;101101.06;;;13.48;100.00
66273;BME280;58450;52.150;4.466;2022-09-16T00:18:16;101102.22;;;13.04;100.00
66273;BME280;58450;52.150;4.466;2022-09-16T00:20:48;101107.19;;;12.71;100.00
66273;BME280;58450;52.150;4.466;2022-09-16T00:23:18;101098.97;;;12.58;100.00
66273;BME280;58450;52.150;4.466;2022-09-16T00:25:49;101094.13;;;12.53;100.00
66273;BME280;58450;52.150;4.466;2022-09-16T00:28:18;101086.91;;;12.61;100.00
66273;BME280;58450;52.150;4.466;2022-09-16T00:30:46;101087.13;;;12.59;100.00
66273;BME280;58450;52.150;4.466;2022-09-16T00:33:15;101093.09;;;12.54;100.00
66273;BME280;58450;52.150;4.466;2022-09-16T00:35:43;101086.91;;;12.61;100.00
66273;BME280;58450;52.150;4.466;2022-09-16T00:38:12;101088.41;;;12.63;100.00
66273;BME280;58450;52.150;4.466;2022-09-16T00:40:43;101075.34;;;12.67;100.00
66273;BME280;58450;52.150;4.466;2022-09-16T00:43:12;101071.22;;;12.71;100.00
66273;BME280;58450;52.150;4.466;2022-09-16T00:45:42;101077.13;;;12.81;100.00
66273;BME280;58450;52.150;4.466;2022-09-16T00:48:16;101079.44;;;12.84;100.00
66273;BME280;58450;52.150;4.466;2022-09-16T00:50:49;101087.31;;;12.86;100.00
66273;BME280;58450;52.150;4.466;2022-09-16T00:53:24;101082.94;;;12.85;100.00
66273;BME280;58450;52.150;4.466;2022-09-16T00:55:55;101084.44;;;12.88;100.00
66273;BME280;58450;52.150;4.466;2022-09-16T00:58:32;101084.78;;;12.78;100.00
66273;BME280;58450;52.150;4.466;2022-09-16T01:01:06;101074.22;;;12.83;100.00
66273;BME280;58450;52.150;4.466;2022-09-16T01:03:38;101083.34;;;12.82;100.00
66273;BME280;58450;52.150;4.466;2022-09-16T01:06:12;101084.84;;;12.84;100.00
66273;BME280;58450;52.150;4.466;2022-09-16T01:08:42;101085.25;;;12.88;100.00
66273;BME280;58450;52.150;4.466;2022-09-16T01:11:11;101096.53;;;12.92;100.00
66273;BME280;58450;52.150;4.466;2022-09-16T01:13:39;101092.97;;;12.91;100.00
66273;BME280;58450;52.150;4.466;2022-09-16T01:16:11;101100.00;;;13.14;100.00
66273;BME280;58450;52.150;4.466;2022-09-16T01:18:49;101094.16;;;13.10;100.00
66273;BME280;58450;52.150;4.466;2022-09-16T01:21:33;101101.19;;;13.05;100.00
66273;BME280;58450;52.150;4.466;2022-09-16T01:24:31;101090.75;;;13.01;100.00
66273;BME280;58450;52.150;4.466;2022-09-16T01:27:24;101095.78;;;13.05;100.00
66273;BME280;58450;52.150;4.466;2022-09-16T01:30:17;101098.28;;;13.06;100.00
66273;BME280;58450;52.150;4.466;2022-09-16T01:33:01;101094.94;;;13.04;100.00
66273;BME280;58450;52.150;4.466;2022-09-16T01:35:41;101101.56;;;13.01;100.00
66273;BME280;58450;52.150;4.466;2022-09-16T01:38:27;101099.09;;;13.00;100.00
66273;BME280;58450;52.150;4.466;2022-09-16T01:41:15;101095.13;;;13.03;100.00
66273;BME280;58450;52.150;4.466;2022-09-16T01:43:56;101101.38;;;13.03;100.00
66273;BME280;58450;52.150;4.466;2022-09-16T01:46:36;101090.38;;;13.05;100.00
66273;BME280;58450;52.150;4.466;2022-09-16T01:49:15;101096.22;;;13.08;100.00
66273;BME280;58450;52.150;4.466;2022-09-16T01:51:51;101097.06;;;13.09;100.00
66273;BME280;58450;52.150;4.466;2022-09-16T01:54:28;101097.50;;;13.12;100.00
66273;BME280;58450;52.150;4.466;2022-09-16T01:57:06;101104.56;;;13.13;100.00
66273;BME280;58450;52.150;4.466;2022-09-16T01:59:43;101107.06;;;13.15;100.00
66273;BME280;58450;52.150;4.466;2022-09-16T02:02:19;101117.25;;;13.13;100.00
66273;BME280;58450;52.150;4.466;2022-09-16T02:04:54;101111.84;;;13.13;100.00
66273;BME280;58450;52.150;4.466;2022-09-16T02:07:25;101119.53;;;13.16;100.00
66273;BME280;58450;52.150;4.466;2022-09-16T02:10:03;101109.13;;;13.13;100.00
66273;BME280;58450;52.150;4.466;2022-09-16T02:12:38;101109.34;;;13.11;100.00
66273;BME280;58450;52.150;4.466;2022-09-16T02:15:14;101101.88;;;13.13;100.00
66273;BME280;58450;52.150;4.466;2022-09-16T02:17:50;101093.81;;;13.20;100.00
66273;BME280;58450;52.150;4.466;2022-09-16T02:20:27;101093.81;;;13.27;100.00
66273;BME280;58450;52.150;4.466;2022-09-16T02:23:01;101096.13;;;13.30;100.00
66273;BME280;58450;52.150;4.466;2022-09-16T02:25:35;101094.69;;;13.27;100.00
66273;BME280;58450;52.150;4.466;2022-09-16T02:28:08;101096.59;;;13.34;100.00
66273;BME280;58450;52.150;4.466;2022-09-16T02:30:41;101087.03;;;13.38;100.00
66273;BME280;58450;52.150;4.466;2022-09-16T02:33:15;101084.13;;;13.39;100.00
66273;BME280;58450;52.150;4.466;2022-09-16T02:35:48;101109.75;;;13.43;100.00
66273;BME280;58450;52.150;4.466;2022-09-16T02:38:22;101111.81;;;13.41;100.00
66273;BME280;58450;52.150;4.466;2022-09-16T02:40:55;101112.38;;;13.01;100.00
66273;BME280;58450;52.150;4.466;2022-09-16T02:43:25;101117.25;;;12.84;100.00
66273;BME280;58450;52.150;4.466;2022-09-16T02:46:05;101129.31;;;12.60;100.00
66273;BME280;58450;52.150;4.466;2022-09-16T02:48:47;101115.53;;;12.33;100.00
66273;BME280;58450;52.150;4.466;2022-09-16T02:51:31;101115.22;;;12.21;100.00
66273;BME280;58450;52.150;4.466;2022-09-16T02:54:08;101108.16;;;12.20;100.00
66273;BME280;58450;52.150;4.466;2022-09-16T02:56:41;101101.53;;;12.23;100.00
66273;BME280;58450;52.150;4.466;2022-09-16T02:59:11;101091.38;;;12.25;100.00
66273;BME280;58450;52.150;4.466;2022-09-16T03:01:41;101089.53;;;12.25;100.00
66273;BME280;58450;52.150;4.466;2022-09-16T03:04:13;101077.44;;;12.21;100.00
66273;BME280;58450;52.150;4.466;2022-09-16T03:06:44;101078.09;;;12.23;100.00
66273;BME280;58450;52.150;4.466;2022-09-16T03:09:13;101073.50;;;12.24;100.00
66273;BME280;58450;52.150;4.466;2022-09-16T03:12:06;101074.16;;;12.26;100.00
66273;BME280;58450;52.150;4.466;2022-09-16T03:14:49;101079.94;;;12.23;100.00
66273;BME280;58450;52.150;4.466;2022-09-16T03:20:36;101077.19;;;12.16;100.00
66273;BME280;58450;52.150;4.466;2022-09-16T03:23:19;101079.25;;;12.14;100.00
66273;BME280;58450;52.150;4.466;2022-09-16T03:25:57;101080.06;;;12.15;100.00
66273;BME280;58450;52.150;4.466;2022-09-16T03:28:34;101089.38;;;12.12;100.00
66273;BME280;58450;52.150;4.466;2022-09-16T03:31:12;101100.56;;;12.09;100.00
66273;BME280;58450;52.150;4.466;2022-09-16T03:33:48;101104.28;;;11.93;100.00
66273;BME280;58450;52.150;4.466;2022-09-16T03:36:25;101091.06;;;11.98;100.00
66273;BME280;58450;52.150;4.466;2022-09-16T03:38:59;101093.03;;;12.04;100.00
66273;BME280;58450;52.150;4.466;2022-09-16T03:41:30;101084.94;;;12.04;100.00
66273;BME280;58450;52.150;4.466;2022-09-16T03:44:00;101088.47;;;12.05;100.00
66273;BME280;58450;52.150;4.466;2022-09-16T03:46:28;101087.06;;;12.09;100.00
66273;BME280;58450;52.150;4.466;2022-09-16T03:48:55;101090.03;;;12.14;100.00
66273;BME280;58450;52.150;4.466;2022-09-16T03:51:25;101084.31;;;12.24;100.00
66273;BME280;58450;52.150;4.466;2022-09-16T03:53:53;101079.38;;;12.27;100.00
66273;BME280;58450;52.150;4.466;2022-09-16T03:56:21;101075.69;;;12.35;100.00
66273;BME280;58450;52.150;4.466;2022-09-16T03:58:50;101070.34;;;12.42;100.00
66273;BME280;58450;52.150;4.466;2022-09-16T04:01:18;101075.56;;;12.44;100.00
66273;BME280;58450;52.150;4.466;2022-09-16T04:03:46;101072.66;;;12.45;100.00
66273;BME280;58450;52.150;4.466;2022-09-16T04:06:14;101067.91;;;12.47;100.00
66273;BME280;58450;52.150;4.466;2022-09-16T04:08:42;101061.94;;;12.52;100.00
66273;BME280;58450;52.150;4.466;2022-09-16T04:11:10;101079.41;;;12.56;100.00
66273;BME280;58450;52.150;4.466;2022-09-16T04:13:37;101072.13;;;12.56;100.00
66273;BME280;58450;52.150;4.466;2022-09-16T04:16:05;101065.94;;;12.56;100.00
66273;BME280;58450;52.150;4.466;2022-09-16T04:18:33;101064.69;;;12.59;100.00
66273;BME280;58450;52.150;4.466;2022-09-16T04:21:02;101069.75;;;12.68;100.00
66273;BME280;58450;52.150;4.466;2022-09-16T04:23:31;101065.53;;;12.88;100.00
66273;BME280;58450;52.150;4.466;2022-09-16T04:26:01;101062.72;;;13.03;100.00
66273;BME280;58450;52.150;4.466;2022-09-16T04:28:30;101065.91;;;13.13;100.00
66273;BME280;58450;52.150;4.466;2022-09-16T04:31:00;101055.34;;;13.18;100.00
66273;BME280;58450;52.150;4.466;2022-09-16T04:33:29;101049.34;;;13.23;100.00
66273;BME280;58450;52.150;4.466;2022-09-16T04:36:04;101059.72;;;13.26;100.00
66273;BME280;58450;52.150;4.466;2022-09-16T04:38:34;101058.09;;;13.32;100.00
66273;BME280;58450;52.150;4.466;2022-09-16T04:41:05;101055.81;;;13.35;100.00
66273;BME280;58450;52.150;4.466;2022-09-16T04:43:35;101057.94;;;13.40;100.00
66273;BME280;58450;52.150;4.466;2022-09-16T04:46:03;101056.97;;;13.48;100.00
66273;BME280;58450;52.150;4.466;2022-09-16T04:48:32;101068.00;;;13.53;100.00
66273;BME280;58450;52.150;4.466;2022-09-16T04:51:01;101063.88;;;13.57;100.00
66273;BME280;58450;52.150;4.466;2022-09-16T04:53:30;101065.75;;;13.56;100.00
66273;BME280;58450;52.150;4.466;2022-09-16T04:56:05;101063.88;;;13.57;100.00
66273;BME280;58450;52.150;4.466;2022-09-16T04:58:34;101069.69;;;13.54;100.00
66273;BME280;58450;52.150;4.466;2022-09-16T05:01:03;101073.41;;;13.53;100.00
66273;BME280;58450;52.150;4.466;2022-09-16T05:03:33;101063.22;;;13.48;100.00
66273;BME280;58450;52.150;4.466;2022-09-16T05:06:04;101056.78;;;13.49;100.00
66273;BME280;58450;52.150;4.466;2022-09-16T05:08:33;101065.69;;;13.50;100.00
66273;BME280;58450;52.150;4.466;2022-09-16T05:11:06;101073.00;;;13.49;100.00
66273;BME280;58450;52.150;4.466;2022-09-16T05:13:35;101063.22;;;13.48;100.00
66273;BME280;58450;52.150;4.466;2022-09-16T05:16:06;101071.50;;;13.47;100.00
66273;BME280;58450;52.150;4.466;2022-09-16T05:18:36;101070.94;;;13.51;100.00
66273;BME280;58450;52.150;4.466;2022-09-16T05:21:06;101061.31;;;13.49;100.00
66273;BME280;58450;52.150;4.466;2022-09-16T05:23:35;101075.06;;;13.47;100.00
66273;BME280;58450;52.150;4.466;2022-09-16T05:26:07;101074.66;;;13.50;100.00
66273;BME280;58450;52.150;4.466;2022-09-16T05:28:37;101069.50;;;13.55;100.00
66273;BME280;58450;52.150;4.466;2022-09-16T05:31:09;101074.09;;;13.62;100.00
66273;BME280;58450;52.150;4.466;2022-09-16T05:33:38;101073.28;;;13.68;100.00
66273;BME280;58450;52.150;4.466;2022-09-16T05:36:09;101072.03;;;13.70;100.00
66273;BME280;58450;52.150;4.466;2022-09-16T05:38:38;101072.50;;;13.81;100.00
66273;BME280;58450;52.150;4.466;2022-09-16T05:41:07;101077.50;;;13.91;100.00
66273;BME280;58450;52.150;4.466;2022-09-16T05:43:35;101074.19;;;13.95;100.00
66273;BME280;58450;52.150;4.466;2022-09-16T05:46:05;101090.66;;;14.00;100.00
66273;BME280;58450;52.150;4.466;2022-09-16T05:48:34;101107.31;;;13.97;100.00
66273;BME280;58450;52.150;4.466;2022-09-16T05:51:03;101095.78;;;13.40;100.00
66273;BME280;58450;52.150;4.466;2022-09-16T05:53:33;101161.00;;;12.15;100.00
66273;BME280;58450;52.150;4.466;2022-09-16T05:56:03;101198.03;;;10.92;100.00
66273;BME280;58450;52.150;4.466;2022-09-16T05:58:33;101155.09;;;10.53;100.00
66273;BME280;58450;52.150;4.466;2022-09-16T06:01:03;101152.50;;;10.59;100.00
66273;BME280;58450;52.150;4.466;2022-09-16T06:03:35;101143.81;;;10.72;100.00
66273;BME280;58450;52.150;4.466;2022-09-16T06:06:06;101126.13;;;10.78;100.00
66273;BME280;58450;52.150;4.466;2022-09-16T06:08:38;101122.22;;;10.81;100.00
66273;BME280;58450;52.150;4.466;2022-09-16T06:11:08;101118.84;;;10.78;100.00
66273;BME280;58450;52.150;4.466;2022-09-16T06:13:38;101120.53;;;10.79;100.00
66273;BME280;58450;52.150;4.466;2022-09-16T06:16:08;101117.97;;;10.86;100.00
66273;BME280;58450;52.150;4.466;2022-09-16T06:18:36;101121.59;;;10.93;100.00
66273;BME280;58450;52.150;4.466;2022-09-16T06:21:06;101112.88;;;11.06;100.00
66273;BME280;58450;52.150;4.466;2022-09-16T06:23:36;101118.09;;;11.23;100.00
66273;BME280;58450;52.150;4.466;2022-09-16T06:26:07;101105.75;;;11.44;100.00
66273;BME280;58450;52.150;4.466;2022-09-16T06:28:37;101108.50;;;11.65;100.00
66273;BME280;58450;52.150;4.466;2022-09-16T06:31:06;101114.44;;;11.91;100.00
66273;BME280;58450;52.150;4.466;2022-09-16T06:33:36;101118.31;;;12.03;100.00
66273;BME280;58450;52.150;4.466;2022-09-16T06:36:06;101117.44;;;12.18;100.00
66273;BME280;58450;52.150;4.466;2022-09-16T06:38:36;101109.22;;;12.26;100.00
66273;BME280;58450;52.150;4.466;2022-09-16T06:41:05;101119.13;;;12.40;100.00
66273;BME280;58450;52.150;4.466;2022-09-16T06:43:34;101107.69;;;12.60;100.00
66273;BME280;58450;52.150;4.466;2022-09-16T06:46:06;101103.88;;;12.76;100.00
66273;BME280;58450;52.150;4.466;2022-09-16T06:48:39;101098.75;;;12.88;100.00
66273;BME280;58450;52.150;4.466;2022-09-16T06:51:10;101105.63;;;13.12;100.00
66273;BME280;58450;52.150;4.466;2022-09-16T06:53:40;101108.16;;;13.21;100.00
66273;BME280;58450;52.150;4.466;2022-09-16T06:56:09;101100.63;;;13.44;100.00
66273;BME280;58450;52.150;4.466;2022-09-16T06:58:39;101097.19;;;13.64;100.00
66273;BME280;58450;52.150;4.466;2022-09-16T07:01:11;101099.59;;;14.01;100.00
66273;BME280;58450;52.150;4.466;2022-09-16T07:03:42;101096.31;;;14.32;100.00
66273;BME280;58450;52.150;4.466;2022-09-16T07:06:11;101103.63;;;14.59;100.00
66273;BME280;58450;52.150;4.466;2022-09-16T07:08:40;101091.75;;;14.60;100.00
66273;BME280;58450;52.150;4.466;2022-09-16T07:11:10;101092.59;;;14.47;100.00
66273;BME280;58450;52.150;4.466;2022-09-16T07:13:40;101093.22;;;14.36;100.00
66273;BME280;58450;52.150;4.466;2022-09-16T07:16:11;101091.31;;;14.23;100.00
66273;BME280;58450;52.150;4.466;2022-09-16T07:18:40;101095.47;;;14.18;100.00
66273;BME280;58450;52.150;4.466;2022-09-16T07:21:11;101098.78;;;14.07;100.00
66273;BME280;58450;52.150;4.466;2022-09-16T07:23:40;101101.22;;;13.88;100.00
66273;BME280;58450;52.150;4.466;2022-09-16T07:26:11;101098.63;;;13.60;100.00
66273;BME280;58450;52.150;4.466;2022-09-16T07:28:41;101103.03;;;13.39;100.00
66273;BME280;58450;52.150;4.466;2022-09-16T07:31:14;101107.19;;;13.35;100.00
66273;BME280;58450;52.150;4.466;2022-09-16T07:33:45;101113.22;;;13.37;100.00
66273;BME280;58450;52.150;4.466;2022-09-16T07:36:16;101108.66;;;13.38;100.00
66273;BME280;58450;52.150;4.466;2022-09-16T07:38:45;101122.69;;;13.48;100.00
66273;BME280;58450;52.150;4.466;2022-09-16T07:41:17;101111.75;;;13.70;100.00
66273;BME280;58450;52.150;4.466;2022-09-16T07:43:47;101109.16;;;13.97;100.00
66273;BME280;58450;52.150;4.466;2022-09-16T07:46:17;101110.09;;;14.31;100.00
66273;BME280;58450;52.150;4.466;2022-09-16T07:48:47;101119.25;;;15.31;100.00
66273;BME280;58450;52.150;4.466;2022-09-16T07:51:17;101118.41;;;16.67;100.00
66273;BME280;58450;52.150;4.466;2022-09-16T07:53:46;101145.56;;;16.35;100.00
66273;BME280;58450;52.150;4.466;2022-09-16T07:56:15;101144.94;;;15.08;100.00
66273;BME280;58450;52.150;4.466;2022-09-16T07:58:45;101151.34;;;14.60;100.00
66273;BME280;58450;52.150;4.466;2022-09-16T08:01:14;101160.72;;;14.44;100.00
66273;BME280;58450;52.150;4.466;2022-09-16T08:03:45;101164.00;;;14.32;100.00
66273;BME280;58450;52.150;4.466;2022-09-16T08:06:14;101160.84;;;14.09;100.00
66273;BME280;58450;52.150;4.466;2022-09-16T08:08:44;101156.19;;;13.96;100.00
66273;BME280;58450;52.150;4.466;2022-09-16T08:11:13;101146.56;;;13.86;100.00
66273;BME280;58450;52.150;4.466;2022-09-16T08:13:42;101154.41;;;13.68;100.00
66273;BME280;58450;52.150;4.466;2022-09-16T08:16:12;101151.47;;;13.63;100.00
66273;BME280;58450;52.150;4.466;2022-09-16T08:18:41;101156.69;;;13.64;100.00
66273;BME280;58450;52.150;4.466;2022-09-16T08:21:13;101154.41;;;13.68;100.00
66273;BME280;58450;52.150;4.466;2022-09-16T08:23:41;101152.84;;;13.87;100.00
66273;BME280;58450;52.150;4.466;2022-09-16T08:26:10;101150.81;;;14.02;100.00
66273;BME280;58450;52.150;4.466;2022-09-16T08:28:40;101159.44;;;14.33;100.00
66273;BME280;58450;52.150;4.466;2022-09-16T08:31:08;101168.72;;;14.79;100.00
66273;BME280;58450;52.150;4.466;2022-09-16T08:33:38;101157.13;;;15.64;100.00
66273;BME280;58450;52.150;4.466;2022-09-16T08:36:11;101186.09;;;15.84;100.00
66273;BME280;58450;52.150;4.466;2022-09-16T08:38:41;101184.34;;;15.17;100.00
66273;BME280;58450;52.150;4.466;2022-09-16T08:41:23;101187.69;;;14.79;100.00
66273;BME280;58450;52.150;4.466;2022-09-16T08:44:05;101184.56;;;14.13;100.00
66273;BME280;58450;52.150;4.466;2022-09-16T08:46:44;101190.47;;;13.82;100.00
66273;BME280;58450;52.150;4.466;2022-09-16T08:49:20;101188.50;;;13.62;100.00
66273;BME280;58450;52.150;4.466;2022-09-16T08:52:01;101192.06;;;13.69;100.00
66273;BME280;58450;52.150;4.466;2022-09-16T08:54:34;101199.88;;;13.86;100.00
66273;BME280;58450;52.150;4.466;2022-09-16T08:57:12;101210.22;;;14.24;100.00
66273;BME280;58450;52.150;4.466;2022-09-16T08:59:45;101212.28;;;14.84;100.00
66273;BME280;58450;52.150;4.466;2022-09-16T09:02:27;101198.53;;;14.99;100.00
66273;BME280;58450;52.150;4.466;2022-09-16T09:05:13;101198.53;;;14.79;100.00
66273;BME280;58450;52.150;4.466;2022-09-16T09:08:05;101196.34;;;14.61;100.00
66273;BME280;58450;52.150;4.466;2022-09-16T09:10:45;101197.19;;;14.61;100.00
66273;BME280;58450;52.150;4.466;2022-09-16T09:13:32;101190.75;;;14.56;100.00
66273;BME280;58450;52.150;4.466;2022-09-16T09:16:15;101199.06;;;14.47;100.00
66273;BME280;58450;52.150;4.466;2022-09-16T09:18:57;101188.78;;;14.23;100.00
66273;BME280;58450;52.150;4.466;2022-09-16T09:21:37;101187.75;;;14.24;100.00
66273;BME280;58450;52.150;4.466;2022-09-16T09:24:24;101182.91;;;14.12;100.00
66273;BME280;58450;52.150;4.466;2022-09-16T09:27:09;101185.63;;;14.19;100.00
66273;BME280;58450;52.150;4.466;2022-09-16T09:29:53;101187.56;;;14.39;100.00
66273;BME280;58450;52.150;4.466;2022-09-16T09:32:40;101199.03;;;14.34;100.00
66273;BME280;58450;52.150;4.466;2022-09-16T09:35:28;101186.06;;;14.23;100.00
66273;BME280;58450;52.150;4.466;2022-09-16T09:38:27;101195.81;;;14.10;100.00
66273;BME280;58450;52.150;4.466;2022-09-16T09:41:15;101188.72;;;14.02;100.00
66273;BME280;58450;52.150;4.466;2022-09-16T09:43:52;101195.09;;;13.95;100.00
66273;BME280;58450;52.150;4.466;2022-09-16T09:46:26;101202.34;;;13.87;100.00
66273;BME280;58450;52.150;4.466;2022-09-16T09:49:00;101188.41;;;13.84;100.00
66273;BME280;58450;52.150;4.466;2022-09-16T09:51:38;101203.38;;;13.86;100.00
66273;BME280;58450;52.150;4.466;2022-09-16T09:54:23;101203.38;;;13.86;100.00
66273;BME280;58450;52.150;4.466;2022-09-16T09:57:00;101197.63;;;13.96;100.00
66273;BME280;58450;52.150;4.466;2022-09-16T09:59:35;101206.63;;;14.10;100.00
66273;BME280;58450;52.150;4.466;2022-09-16T10:02:14;101198.31;;;14.12;100.00
66273;BME280;58450;52.150;4.466;2022-09-16T10:04:45;101199.59;;;14.29;100.00
66273;BME280;58450;52.150;4.466;2022-09-16T10:07:15;101201.22;;;15.19;100.00
66273;BME280;58450;52.150;4.466;2022-09-16T10:09:50;101182.09;;;17.28;100.00
66273;BME280;58450;52.150;4.466;2022-09-16T10:12:31;101186.47;;;18.84;90.70
66273;BME280;58450;52.150;4.466;2022-09-16T10:15:00;101185.81;;;19.12;74.60
66273;BME280;58450;52.150;4.466;2022-09-16T10:17:29;101183.72;;;18.72;76.57
66273;BME280;58450;52.150;4.466;2022-09-16T10:20:00;101181.06;;;17.85;79.68
66273;BME280;58450;52.150;4.466;2022-09-16T10:22:33;101185.28;;;17.00;85.13
66273;BME280;58450;52.150;4.466;2022-09-16T10:25:03;101193.34;;;17.32;88.73
66273;BME280;58450;52.150;4.466;2022-09-16T10:27:37;101193.06;;;16.64;97.01
66273;BME280;58450;52.150;4.466;2022-09-16T10:30:11;101197.50;;;16.06;100.00
66273;BME280;58450;52.150;4.466;2022-09-16T10:32:47;101192.19;;;16.64;100.00
66273;BME280;58450;52.150;4.466;2022-09-16T10:35:23;101179.34;;;17.54;88.91
66273;BME280;58450;52.150;4.466;2022-09-16T10:37:54;101188.41;;;17.85;84.88
66273;BME280;58450;52.150;4.466;2022-09-16T10:40:24;101188.66;;;18.63;76.69
66273;BME280;58450;52.150;4.466;2022-09-16T10:42:58;101183.69;;;18.29;71.57
66273;BME280;58450;52.150;4.466;2022-09-16T10:45:33;101187.94;;;19.46;64.89
66273;BME280;58450;52.150;4.466;2022-09-16T10:48:05;101190.44;;;20.41;60.53
66273;BME280;58450;52.150;4.466;2022-09-16T10:50:38;101190.50;;;20.58;63.22
66273;BME280;58450;52.150;4.466;2022-09-16T10:53:20;101188.59;;;20.76;62.17
66273;BME280;58450;52.150;4.466;2022-09-16T10:56:00;101208.09;;;19.69;66.30
66273;BME280;58450;52.150;4.466;2022-09-16T10:58:31;101203.75;;;19.56;64.41
66273;BME280;58450;52.150;4.466;2022-09-16T11:01:09;101203.38;;;19.64;61.50
66273;BME280;58450;52.150;4.466;2022-09-16T11:07:25;101202.91;;;19.43;58.68
66273;BME280;58450;52.150;4.466;2022-09-16T11:10:10;101197.09;;;19.28;65.21
66273;BME280;58450;52.150;4.466;2022-09-16T11:13:09;101198.47;;;18.52;68.27
66273;BME280;58450;52.150;4.466;2022-09-16T11:16:06;101207.84;;;17.01;83.76
66273;BME280;58450;52.150;4.466;2022-09-16T11:18:48;101214.88;;;16.51;98.32
66273;BME280;58450;52.150;4.466;2022-09-16T11:21:41;101223.88;;;15.92;100.00
66273;BME280;58450;52.150;4.466;2022-09-16T11:24:32;101234.31;;;14.68;100.00
66273;BME280;58450;52.150;4.466;2022-09-16T11:27:21;101230.84;;;14.25;100.00
66273;BME280;58450;52.150;4.466;2022-09-16T11:30:00;101224.13;;;14.08;100.00
66273;BME280;58450;52.150;4.466;2022-09-16T11:36:16;101226.78;;;14.50;100.00
66273;BME280;58450;52.150;4.466;2022-09-16T11:39:02;101217.47;;;15.46;100.00
66273;BME280;58450;52.150;4.466;2022-09-16T11:41:46;101208.38;;;16.13;100.00
66273;BME280;58450;52.150;4.466;2022-09-16T11:44:31;101221.19;;;15.65;100.00
66273;BME280;58450;52.150;4.466;2022-09-16T11:47:17;101218.06;;;15.69;100.00
66273;BME280;58450;52.150;4.466;2022-09-16T11:50:09;101219.94;;;15.81;100.00
66273;BME280;58450;52.150;4.466;2022-09-16T11:53:13;101220.34;;;15.72;100.00
66273;BME280;58450;52.150;4.466;2022-09-16T11:55:56;101212.84;;;15.87;100.00
66273;BME280;58450;52.150;4.466;2022-09-16T11:58:33;101219.03;;;16.08;94.20
66273;BME280;58450;52.150;4.466;2022-09-16T12:01:29;101208.91;;;17.25;80.64
66273;BME280;58450;52.150;4.466;2022-09-16T12:04:05;101220.84;;;16.98;84.56
66273;BME280;58450;52.150;4.466;2022-09-16T12:06:53;101221.25;;;17.02;86.23
66273;BME280;58450;52.150;4.466;2022-09-16T12:09:32;101226.09;;;16.61;82.89
66273;BME280;58450;52.150;4.466;2022-09-16T12:12:10;101230.78;;;15.81;92.04
66273;BME280;58450;52.150;4.466;2022-09-16T12:14:42;101250.44;;;15.10;94.18
66273;BME280;58450;52.150;4.466;2022-09-16T12:17:15;101242.44;;;14.68;100.00
66273;BME280;58450;52.150;4.466;2022-09-16T12:19:51;101250.66;;;13.91;100.00
66273;BME280;58450;52.150;4.466;2022-09-16T12:22:26;101236.00;;;13.43;100.00
66273;BME280;58450;52.150;4.466;2022-09-16T12:25:02;101239.19;;;13.03;100.00
66273;BME280;58450;52.150;4.466;2022-09-16T12:27:44;101239.16;;;12.81;100.00
66273;BME280;58450;52.150;4.466;2022-09-16T12:30:19;101234.22;;;12.63;100.00
66273;BME280;58450;52.150;4.466;2022-09-16T12:32:55;101244.97;;;12.41;100.00
66273;BME280;58450;52.150;4.466;2022-09-16T12:35:30;101244.91;;;12.35;100.00
66273;BME280;58450;52.150;4.466;2022-09-16T12:38:02;101245.00;;;12.26;100.00
66273;BME280;58450;52.150;4.466;2022-09-16T12:40:35;101241.84;;;12.23;100.00
66273;BME280;58450;52.150;4.466;2022-09-16T12:43:27;101243.78;;;12.29;100.00
66273;BME280;58450;52.150;4.466;2022-09-16T12:46:22;101237.09;;;12.25;100.00
66273;BME280;58450;52.150;4.466;2022-09-16T12:56:11;101232.28;;;12.42;100.00
66273;BME280;58450;52.150;4.466;2022-09-16T12:59:12;101235.47;;;12.46;100.00
66273;BME280;58450;52.150;4.466;2022-09-16T13:01:50;101236.66;;;12.43;100.00
66273;BME280;58450;52.150;4.466;2022-09-16T13:04:26;101222.84;;;12.31;100.00
66273;BME280;58450;52.150;4.466;2022-09-16T13:06:58;101228.25;;;12.31;100.00
66273;BME280;58450;52.150;4.466;2022-09-16T13:09:28;101229.34;;;12.37;100.00
66273;BME280;58450;52.150;4.466;2022-09-16T13:12:05;101224.28;;;12.49;100.00
66273;BME280;58450;52.150;4.466;2022-09-16T13:14:45;101220.44;;;12.58;100.00
66273;BME280;58450;52.150;4.466;2022-09-16T13:17:26;101210.19;;;12.68;100.00
66273;BME280;58450;52.150;4.466;2022-09-16T13:20:01;101213.50;;;12.92;100.00
66273;BME280;58450;52.150;4.466;2022-09-16T13:22:36;101216.94;;;13.29;100.00
66273;BME280;58450;52.150;4.466;2022-09-16T13:25:19;101214.75;;;13.75;100.00
66273;BME280;58450;52.150;4.466;2022-09-16T13:27:56;101217.25;;;15.68;100.00
66273;BME280;58450;52.150;4.466;2022-09-16T13:30:34;101208.00;;;17.75;100.00
66273;BME280;58450;52.150;4.466;2022-09-16T13:33:26;101212.75;;;17.17;92.75
66273;BME280;58450;52.150;4.466;2022-09-16T13:36:11;101213.34;;;18.38;83.22